sensor_id;sensor_type;location;lat;lon;timestamp;temperature;humidity
1075;DHT22;526;51.392;12.448;2022-10-31T00:01:59;13.70;97.30
1075;DHT22;526;51.392;12.448;2022-10-31T00:04:25;13.70;97.30
1075;DHT22;526;51.392;12.448;2022-10-31T00:06:50;13.70;97.30
1075;DHT22;526;51.392;12.448;2022-10-31T00:09:16;13.70;97.30
1075;DHT22;526;51.392;12.448;2022-10-31T00:11:41;13.60;97.30
1075;DHT22;526;51.392;12.448;2022-10-31T00:14:07;13.50;97.30
1075;DHT22;526;51.392;12.448;2022-10-31T00:16:32;13.40;97.30
1075;DHT22;526;51.392;12.448;2022-10-31T00:19:00;13.30;97.30
1075;DHT22;526;51.392;12.448;2022-10-31T00:21:27;13.20;97.30
1075;DHT22;526;51.392;12.448;2022-10-31T00:23:53;13.10;97.30
1075;DHT22;526;51.392;12.448;2022-10-31T00:26:21;13.10;97.30
1075;DHT22;526;51.392;12.448;2022-10-31T00:28:46;13.00;97.30
1075;DHT22;526;51.392;12.448;2022-10-31T00:31:13;12.90;97.30
1075;DHT22;526;51.392;12.448;2022-10-31T00:33:39;12.90;97.30
1075;DHT22;526;51.392;12.448;2022-10-31T00:36:07;12.80;97.30
1075;DHT22;526;51.392;12.448;2022-10-31T00:38:32;12.70;97.30
1075;DHT22;526;51.392;12.448;2022-10-31T00:40:58;12.70;97.30
1075;DHT22;526;51.392;12.448;2022-10-31T00:43:24;12.70;97.30
1075;DHT22;526;51.392;12.448;2022-10-31T00:45:50;12.60;97.30
1075;DHT22;526;51.392;12.448;2022-10-31T00:48:16;12.50;97.30
1075;DHT22;526;51.392;12.448;2022-10-31T00:50:41;12.50;97.30
1075;DHT22;526;51.392;12.448;2022-10-31T00:53:07;12.40;97.30
1075;DHT22;526;51.392;12.448;2022-10-31T00:55:33;12.30;97.30
1075;DHT22;526;51.392;12.448;2022-10-31T00:57:58;12.20;97.30
1075;DHT22;526;51.392;12.448;2022-10-31T01:00:25;12.10;97.30
1075;DHT22;526;51.392;12.448;2022-10-31T01:02:50;12.00;97.30
1075;DHT22;526;51.392;12.448;2022-10-31T01:05:16;12.00;97.30
1075;DHT22;526;51.392;12.448;2022-10-31T01:07:42;12.00;97.30
1075;DHT22;526;51.392;12.448;2022-10-31T01:10:08;11.90;97.30
1075;DHT22;526;51.392;12.448;2022-10-31T01:12:42;11.90;97.30
1075;DHT22;526;51.392;12.448;2022-10-31T01:15:10;11.80;97.30
1075;DHT22;526;51.392;12.448;2022-10-31T01:17:36;11.70;97.30
1075;DHT22;526;51.392;12.448;2022-10-31T01:20:03;11.60;97.30
1075;DHT22;526;51.392;12.448;2022-10-31T01:22:29;11.50;97.30
1075;DHT22;526;51.392;12.448;2022-10-31T01:24:54;11.50;97.30
1075;DHT22;526;51.392;12.448;2022-10-31T01:27:20;11.50;97.30
1075;DHT22;526;51.392;12.448;2022-10-31T01:29:45;11.40;97.30
1075;DHT22;526;51.392;12.448;2022-10-31T01:32:11;11.40;97.30
1075;DHT22;526;51.392;12.448;2022-10-31T01:34:36;11.40;97.30
1075;DHT22;526;51.392;12.448;2022-10-31T01:37:02;11.40;97.30
1075;DHT22;526;51.392;12.448;2022-10-31T01:39:28;11.30;97.30
1075;DHT22;526;51.392;12.448;2022-10-31T01:41:56;11.30;97.30
1075;DHT22;526;51.392;12.448;2022-10-31T01:49:46;11.10;97.30
1075;DHT22;526;51.392;12.448;2022-10-31T01:52:19;11.10;97.30
1075;DHT22;526;51.392;12.448;2022-10-31T01:57:45;11.00;97.30
1075;DHT22;526;51.392;12.448;2022-10-31T02:00:12;11.00;97.30
1075;DHT22;526;51.392;12.448;2022-10-31T02:02:38;11.00;97.30
1075;DHT22;526;51.392;12.448;2022-10-31T02:05:08;11.00;97.30
1075;DHT22;526;51.392;12.448;2022-10-31T02:10:13;10.90;97.30
1075;DHT22;526;51.392;12.448;2022-10-31T02:12:39;10.90;97.30
1075;DHT22;526;51.392;12.448;2022-10-31T02:15:06;10.90;97.30
1075;DHT22;526;51.392;12.448;2022-10-31T02:17:33;10.90;97.30
1075;DHT22;526;51.392;12.448;2022-10-31T02:23:08;10.80;97.30
1075;DHT22;526;51.392;12.448;2022-10-31T02:31:46;10.60;97.30
1075;DHT22;526;51.392;12.448;2022-10-31T02:34:20;10.60;97.30
1075;DHT22;526;51.392;12.448;2022-10-31T02:42:15;10.50;97.30
1075;DHT22;526;51.392;12.448;2022-10-31T02:44:45;10.50;97.30
1075;DHT22;526;51.392;12.448;2022-10-31T02:47:16;10.40;97.30
1075;DHT22;526;51.392;12.448;2022-10-31T02:54:51;10.30;97.30
1075;DHT22;526;51.392;12.448;2022-10-31T02:57:23;10.30;97.30
1075;DHT22;526;51.392;12.448;2022-10-31T02:59:55;10.30;97.30
1075;DHT22;526;51.392;12.448;2022-10-31T03:08:24;10.30;97.30
1075;DHT22;526;51.392;12.448;2022-10-31T03:11:03;10.20;97.30
1075;DHT22;526;51.392;12.448;2022-10-31T03:13:41;10.20;97.30
1075;DHT22;526;51.392;12.448;2022-10-31T03:16:11;10.20;97.30
1075;DHT22;526;51.392;12.448;2022-10-31T03:18:40;10.10;97.30
1075;DHT22;526;51.392;12.448;2022-10-31T03:21:14;10.10;97.30
1075;DHT22;526;51.392;12.448;2022-10-31T03:23:44;10.10;97.30
1075;DHT22;526;51.392;12.448;2022-10-31T03:26:12;10.00;97.30
1075;DHT22;526;51.392;12.448;2022-10-31T03:28:51;10.00;97.30
1075;DHT22;526;51.392;12.448;2022-10-31T03:31:19;10.00;97.30
1075;DHT22;526;51.392;12.448;2022-10-31T03:33:49;10.00;97.30
1075;DHT22;526;51.392;12.448;2022-10-31T03:36:17;9.90;97.30
1075;DHT22;526;51.392;12.448;2022-10-31T03:38:45;9.90;97.30
1075;DHT22;526;51.392;12.448;2022-10-31T03:41:16;9.90;97.30
1075;DHT22;526;51.392;12.448;2022-10-31T03:43:52;9.80;97.30
1075;DHT22;526;51.392;12.448;2022-10-31T03:46:19;9.80;97.30
1075;DHT22;526;51.392;12.448;2022-10-31T03:48:45;9.70;97.30
1075;DHT22;526;51.392;12.448;2022-10-31T03:51:18;9.70;97.30
1075;DHT22;526;51.392;12.448;2022-10-31T03:54:02;9.70;97.30
1075;DHT22;526;51.392;12.448;2022-10-31T03:57:33;9.60;97.30
1075;DHT22;526;51.392;12.448;2022-10-31T03:59:33;9.60;97.30
1075;DHT22;526;51.392;12.448;2022-10-31T04:02:03;9.60;97.30
1075;DHT22;526;51.392;12.448;2022-10-31T04:04:32;9.60;97.30
1075;DHT22;526;51.392;12.448;2022-10-31T04:07:00;9.50;97.30
1075;DHT22;526;51.392;12.448;2022-10-31T04:09:27;9.50;97.30
1075;DHT22;526;51.392;12.448;2022-10-31T04:11:57;9.50;97.30
1075;DHT22;526;51.392;12.448;2022-10-31T04:14:25;9.50;97.30
1075;DHT22;526;51.392;12.448;2022-10-31T04:16:51;9.50;97.30
1075;DHT22;526;51.392;12.448;2022-10-31T04:19:17;9.40;97.30
1075;DHT22;526;51.392;12.448;2022-10-31T04:21:42;9.40;97.30
1075;DHT22;526;51.392;12.448;2022-10-31T04:24:11;9.40;97.30
1075;DHT22;526;51.392;12.448;2022-10-31T04:26:37;9.40;97.30
1075;DHT22;526;51.392;12.448;2022-10-31T04:29:02;9.40;97.30
1075;DHT22;526;51.392;12.448;2022-10-31T04:31:28;9.30;97.30
1075;DHT22;526;51.392;12.448;2022-10-31T04:33:53;9.30;97.30
1075;DHT22;526;51.392;12.448;2022-10-31T04:36:19;9.20;97.30
1075;DHT22;526;51.392;12.448;2022-10-31T04:38:45;9.20;97.30
1075;DHT22;526;51.392;12.448;2022-10-31T04:41:10;9.20;97.30
1075;DHT22;526;51.392;12.448;2022-10-31T04:43:36;9.20;97.30
1075;DHT22;526;51.392;12.448;2022-10-31T04:46:02;9.20;97.30
1075;DHT22;526;51.392;12.448;2022-10-31T04:48:28;9.10;97.30
1075;DHT22;526;51.392;12.448;2022-10-31T04:51:01;9.20;97.30
1075;DHT22;526;51.392;12.448;2022-10-31T04:53:27;9.10;97.30
1075;DHT22;526;51.392;12.448;2022-10-31T04:55:52;9.10;97.30
1075;DHT22;526;51.392;12.448;2022-10-31T04:58:18;9.10;97.30
1075;DHT22;526;51.392;12.448;2022-10-31T05:00:44;9.00;97.30
1075;DHT22;526;51.392;12.448;2022-10-31T05:03:09;9.00;97.30
1075;DHT22;526;51.392;12.448;2022-10-31T05:05:35;9.00;97.30
1075;DHT22;526;51.392;12.448;2022-10-31T05:08:00;9.00;97.30
1075;DHT22;526;51.392;12.448;2022-10-31T05:10:28;9.00;97.30
1075;DHT22;526;51.392;12.448;2022-10-31T05:12:56;8.90;97.30
1075;DHT22;526;51.392;12.448;2022-10-31T05:15:23;8.90;97.30
1075;DHT22;526;51.392;12.448;2022-10-31T05:17:53;8.90;97.30
1075;DHT22;526;51.392;12.448;2022-10-31T05:20:32;8.90;97.30
1075;DHT22;526;51.392;12.448;2022-10-31T05:23:42;8.80;97.30
1075;DHT22;526;51.392;12.448;2022-10-31T05:26:23;8.80;97.30
1075;DHT22;526;51.392;12.448;2022-10-31T05:29:00;8.90;97.30
1075;DHT22;526;51.392;12.448;2022-10-31T05:31:29;8.80;97.30
1075;DHT22;526;51.392;12.448;2022-10-31T05:33:59;8.80;97.30
1075;DHT22;526;51.392;12.448;2022-10-31T05:39:32;8.80;97.30
1075;DHT22;526;51.392;12.448;2022-10-31T05:42:00;8.80;97.30
1075;DHT22;526;51.392;12.448;2022-10-31T05:44:41;8.80;97.30
1075;DHT22;526;51.392;12.448;2022-10-31T05:47:09;8.70;97.30
1075;DHT22;526;51.392;12.448;2022-10-31T05:49:41;8.70;97.30
1075;DHT22;526;51.392;12.448;2022-10-31T05:52:30;8.70;97.30
1075;DHT22;526;51.392;12.448;2022-10-31T05:55:01;8.60;97.30
1075;DHT22;526;51.392;12.448;2022-10-31T05:57:40;8.60;97.30
1075;DHT22;526;51.392;12.448;2022-10-31T06:00:11;8.60;97.30
1075;DHT22;526;51.392;12.448;2022-10-31T06:02:42;8.60;97.30
1075;DHT22;526;51.392;12.448;2022-10-31T06:05:10;8.60;97.30
1075;DHT22;526;51.392;12.448;2022-10-31T06:07:36;8.60;97.30
1075;DHT22;526;51.392;12.448;2022-10-31T06:10:11;8.50;97.30
1075;DHT22;526;51.392;12.448;2022-10-31T06:12:37;8.50;97.30
1075;DHT22;526;51.392;12.448;2022-10-31T06:15:07;8.50;97.30
1075;DHT22;526;51.392;12.448;2022-10-31T06:17:41;8.50;97.30
1075;DHT22;526;51.392;12.448;2022-10-31T06:20:10;8.50;97.30
1075;DHT22;526;51.392;12.448;2022-10-31T06:22:42;8.50;97.30
1075;DHT22;526;51.392;12.448;2022-10-31T06:25:10;8.60;97.30
1075;DHT22;526;51.392;12.448;2022-10-31T06:27:42;8.60;97.30
1075;DHT22;526;51.392;12.448;2022-10-31T06:30:11;8.60;97.30
1075;DHT22;526;51.392;12.448;2022-10-31T06:32:39;8.60;97.30
1075;DHT22;526;51.392;12.448;2022-10-31T06:35:12;8.60;97.30
1075;DHT22;526;51.392;12.448;2022-10-31T06:37:54;8.60;97.30
1075;DHT22;526;51.392;12.448;2022-10-31T06:40:40;8.60;97.30
1075;DHT22;526;51.392;12.448;2022-10-31T06:43:12;8.60;97.30
1075;DHT22;526;51.392;12.448;2022-10-31T06:49:11;8.70;97.30
1075;DHT22;526;51.392;12.448;2022-10-31T06:55:13;8.80;97.30
1075;DHT22;526;51.392;12.448;2022-10-31T06:57:58;8.90;97.30
1075;DHT22;526;51.392;12.448;2022-10-31T07:00:32;8.90;97.30
1075;DHT22;526;51.392;12.448;2022-10-31T07:03:03;9.00;97.30
1075;DHT22;526;51.392;12.448;2022-10-31T07:05:29;9.10;97.30
1075;DHT22;526;51.392;12.448;2022-10-31T07:08:04;9.20;97.30
1075;DHT22;526;51.392;12.448;2022-10-31T07:10:32;9.30;97.30
1075;DHT22;526;51.392;12.448;2022-10-31T07:13:00;9.40;97.30
1075;DHT22;526;51.392;12.448;2022-10-31T07:15:27;9.50;97.30
1075;DHT22;526;51.392;12.448;2022-10-31T07:17:53;9.50;97.30
1075;DHT22;526;51.392;12.448;2022-10-31T07:20:19;9.60;97.30
1075;DHT22;526;51.392;12.448;2022-10-31T07:22:45;9.70;97.30
1075;DHT22;526;51.392;12.448;2022-10-31T07:25:10;9.90;97.30
1075;DHT22;526;51.392;12.448;2022-10-31T07:27:41;9.90;97.30
1075;DHT22;526;51.392;12.448;2022-10-31T07:30:08;10.00;97.30
1075;DHT22;526;51.392;12.448;2022-10-31T07:32:42;10.10;97.30
1075;DHT22;526;51.392;12.448;2022-10-31T07:35:13;10.20;97.30
1075;DHT22;526;51.392;12.448;2022-10-31T07:37:38;10.30;97.30
1075;DHT22;526;51.392;12.448;2022-10-31T07:40:05;10.30;97.30
1075;DHT22;526;51.392;12.448;2022-10-31T07:42:39;10.40;97.30
1075;DHT22;526;51.392;12.448;2022-10-31T07:45:07;10.40;97.30
1075;DHT22;526;51.392;12.448;2022-10-31T07:47:40;10.50;97.30
1075;DHT22;526;51.392;12.448;2022-10-31T07:50:06;10.60;97.30
1075;DHT22;526;51.392;12.448;2022-10-31T07:52:32;10.70;97.30
1075;DHT22;526;51.392;12.448;2022-10-31T07:54:57;10.70;97.30
1075;DHT22;526;51.392;12.448;2022-10-31T07:57:23;10.90;97.30
1075;DHT22;526;51.392;12.448;2022-10-31T07:59:49;11.00;97.30
1075;DHT22;526;51.392;12.448;2022-10-31T08:02:14;11.20;97.30
1075;DHT22;526;51.392;12.448;2022-10-31T08:04:40;11.40;97.30
1075;DHT22;526;51.392;12.448;2022-10-31T08:07:05;11.60;97.30
1075;DHT22;526;51.392;12.448;2022-10-31T08:09:31;11.80;97.30
1075;DHT22;526;51.392;12.448;2022-10-31T08:11:56;12.00;97.30
1075;DHT22;526;51.392;12.448;2022-10-31T08:14:22;12.20;97.30
1075;DHT22;526;51.392;12.448;2022-10-31T08:16:47;12.40;97.30
1075;DHT22;526;51.392;12.448;2022-10-31T08:19:13;12.60;97.30
1075;DHT22;526;51.392;12.448;2022-10-31T08:21:39;12.70;97.30
1075;DHT22;526;51.392;12.448;2022-10-31T08:24:05;12.90;97.30
1075;DHT22;526;51.392;12.448;2022-10-31T08:26:30;13.00;97.30
1075;DHT22;526;51.392;12.448;2022-10-31T08:28:56;13.20;97.30
1075;DHT22;526;51.392;12.448;2022-10-31T08:31:22;13.30;97.30
1075;DHT22;526;51.392;12.448;2022-10-31T08:33:48;13.50;97.30
1075;DHT22;526;51.392;12.448;2022-10-31T08:36:14;13.60;97.30
1075;DHT22;526;51.392;12.448;2022-10-31T08:38:39;13.80;97.30
1075;DHT22;526;51.392;12.448;2022-10-31T08:41:05;13.90;97.30
1075;DHT22;526;51.392;12.448;2022-10-31T08:43:30;14.00;97.30
1075;DHT22;526;51.392;12.448;2022-10-31T08:45:56;14.20;97.30
1075;DHT22;526;51.392;12.448;2022-10-31T08:48:21;14.30;97.30
1075;DHT22;526;51.392;12.448;2022-10-31T08:50:47;14.40;97.30
1075;DHT22;526;51.392;12.448;2022-10-31T08:53:17;14.60;97.30
1075;DHT22;526;51.392;12.448;2022-10-31T08:55:44;14.70;97.30
1075;DHT22;526;51.392;12.448;2022-10-31T08:58:12;14.80;97.30
1075;DHT22;526;51.392;12.448;2022-10-31T09:00:38;15.00;97.30
1075;DHT22;526;51.392;12.448;2022-10-31T09:03:10;15.00;97.30
1075;DHT22;526;51.392;12.448;2022-10-31T09:05:35;15.20;97.30
1075;DHT22;526;51.392;12.448;2022-10-31T09:08:02;15.30;97.30
1075;DHT22;526;51.392;12.448;2022-10-31T09:10:30;15.30;97.30
1075;DHT22;526;51.392;12.448;2022-10-31T09:13:00;15.40;97.30
1075;DHT22;526;51.392;12.448;2022-10-31T09:15:27;15.50;97.30
1075;DHT22;526;51.392;12.448;2022-10-31T09:17:56;15.60;97.30
1075;DHT22;526;51.392;12.448;2022-10-31T09:20:22;15.60;97.30
1075;DHT22;526;51.392;12.448;2022-10-31T09:22:47;15.70;97.30
1075;DHT22;526;51.392;12.448;2022-10-31T09:25:13;15.70;97.30
1075;DHT22;526;51.392;12.448;2022-10-31T09:27:39;15.80;97.30
1075;DHT22;526;51.392;12.448;2022-10-31T09:30:05;15.90;97.30
1075;DHT22;526;51.392;12.448;2022-10-31T09:32:30;16.00;97.30
1075;DHT22;526;51.392;12.448;2022-10-31T09:34:56;16.10;97.30
1075;DHT22;526;51.392;12.448;2022-10-31T09:37:22;16.20;97.30
1075;DHT22;526;51.392;12.448;2022-10-31T09:39:47;16.30;97.30
1075;DHT22;526;51.392;12.448;2022-10-31T09:45:06;16.40;97.30
1075;DHT22;526;51.392;12.448;2022-10-31T09:47:40;16.50;97.30
1075;DHT22;526;51.392;12.448;2022-10-31T09:50:22;16.40;97.30
1075;DHT22;526;51.392;12.448;2022-10-31T09:53:13;16.50;97.30
1075;DHT22;526;51.392;12.448;2022-10-31T09:55:44;16.40;97.30
1075;DHT22;526;51.392;12.448;2022-10-31T09:58:19;16.40;97.30
1075;DHT22;526;51.392;12.448;2022-10-31T10:00:47;16.50;97.30
1075;DHT22;526;51.392;12.448;2022-10-31T10:03:20;16.50;97.30
1075;DHT22;526;51.392;12.448;2022-10-31T10:06:11;16.60;97.30
1075;DHT22;526;51.392;12.448;2022-10-31T10:08:37;16.80;97.30
1075;DHT22;526;51.392;12.448;2022-10-31T10:16:43;17.10;97.30
1075;DHT22;526;51.392;12.448;2022-10-31T10:27:37;17.40;97.30
1075;DHT22;526;51.392;12.448;2022-10-31T10:30:20;17.40;97.30
1075;DHT22;526;51.392;12.448;2022-10-31T10:32:49;17.60;97.30
1075;DHT22;526;51.392;12.448;2022-10-31T10:35:30;17.70;97.30
1075;DHT22;526;51.392;12.448;2022-10-31T10:38:03;17.80;97.30
1075;DHT22;526;51.392;12.448;2022-10-31T10:40:34;18.00;97.30
1075;DHT22;526;51.392;12.448;2022-10-31T10:43:24;18.10;97.30
1075;DHT22;526;51.392;12.448;2022-10-31T10:51:31;18.30;97.30
1075;DHT22;526;51.392;12.448;2022-10-31T10:57:09;18.50;97.30
1075;DHT22;526;51.392;12.448;2022-10-31T10:59:36;18.50;97.30
1075;DHT22;526;51.392;12.448;2022-10-31T11:02:08;18.40;97.30
1075;DHT22;526;51.392;12.448;2022-10-31T11:04:40;18.40;97.30
1075;DHT22;526;51.392;12.448;2022-10-31T11:07:09;18.40;97.30
1075;DHT22;526;51.392;12.448;2022-10-31T11:09:37;18.50;97.30
1075;DHT22;526;51.392;12.448;2022-10-31T11:12:16;18.60;97.30
1075;DHT22;526;51.392;12.448;2022-10-31T11:14:55;18.70;97.30
1075;DHT22;526;51.392;12.448;2022-10-31T11:22:46;19.00;97.30
1075;DHT22;526;51.392;12.448;2022-10-31T11:25:26;19.10;97.30
1075;DHT22;526;51.392;12.448;2022-10-31T11:28:03;19.20;97.30
1075;DHT22;526;51.392;12.448;2022-10-31T11:30:30;19.30;97.30
1075;DHT22;526;51.392;12.448;2022-10-31T11:32:58;19.40;97.30
1075;DHT22;526;51.392;12.448;2022-10-31T11:35:24;19.50;97.30
1075;DHT22;526;51.392;12.448;2022-10-31T11:37:52;19.60;97.30
1075;DHT22;526;51.392;12.448;2022-10-31T11:40:24;19.70;97.30
1075;DHT22;526;51.392;12.448;2022-10-31T11:42:51;19.80;97.30
1075;DHT22;526;51.392;12.448;2022-10-31T11:45:28;19.80;97.30
1075;DHT22;526;51.392;12.448;2022-10-31T11:47:56;19.90;97.30
1075;DHT22;526;51.392;12.448;2022-10-31T11:52:55;19.80;97.30
1075;DHT22;526;51.392;12.448;2022-10-31T11:55:37;19.80;97.30
1075;DHT22;526;51.392;12.448;2022-10-31T11:58:04;19.80;97.30
1075;DHT22;526;51.392;12.448;2022-10-31T12:00:32;19.80;97.30
1075;DHT22;526;51.392;12.448;2022-10-31T12:06:15;19.90;97.30
1075;DHT22;526;51.392;12.448;2022-10-31T12:08:43;20.00;97.30
1075;DHT22;526;51.392;12.448;2022-10-31T12:11:38;20.10;97.30
1075;DHT22;526;51.392;12.448;2022-10-31T12:16:55;20.20;97.30
1075;DHT22;526;51.392;12.448;2022-10-31T12:25:12;20.30;97.30
1075;DHT22;526;51.392;12.448;2022-10-31T12:28:07;20.20;97.30
1075;DHT22;526;51.392;12.448;2022-10-31T12:43:56;20.10;97.30
1075;DHT22;526;51.392;12.448;2022-10-31T12:57:58;20.10;97.30
1075;DHT22;526;51.392;12.448;2022-10-31T13:00:27;20.10;97.30
1075;DHT22;526;51.392;12.448;2022-10-31T13:03:02;20.00;97.30
1075;DHT22;526;51.392;12.448;2022-10-31T13:05:34;20.10;97.30
1075;DHT22;526;51.392;12.448;2022-10-31T13:08:13;20.10;97.30
1075;DHT22;526;51.392;12.448;2022-10-31T13:13:43;20.30;97.30
1075;DHT22;526;51.392;12.448;2022-10-31T13:16:17;20.30;97.30
1075;DHT22;526;51.392;12.448;2022-10-31T13:21:41;20.20;97.30
1075;DHT22;526;51.392;12.448;2022-10-31T13:24:13;20.20;97.30
1075;DHT22;526;51.392;12.448;2022-10-31T13:26:50;20.10;97.30
1075;DHT22;526;51.392;12.448;2022-10-31T13:29:24;20.00;97.30
1075;DHT22;526;51.392;12.448;2022-10-31T13:31:51;19.90;97.30
1075;DHT22;526;51.392;12.448;2022-10-31T13:35:02;19.80;97.30
1075;DHT22;526;51.392;12.448;2022-10-31T13:37:38;19.70;97.30
1075;DHT22;526;51.392;12.448;2022-10-31T13:40:35;19.50;97.30
1075;DHT22;526;51.392;12.448;2022-10-31T13:45:51;19.30;97.30
1075;DHT22;526;51.392;12.448;2022-10-31T13:48:34;19.20;97.30
1075;DHT22;526;51.392;12.448;2022-10-31T13:51:06;19.10;97.30
1075;DHT22;526;51.392;12.448;2022-10-31T13:53:42;19.10;97.30
1075;DHT22;526;51.392;12.448;2022-10-31T13:58:34;19.00;97.30
1075;DHT22;526;51.392;12.448;2022-10-31T14:01:21;18.90;97.30
1075;DHT22;526;51.392;12.448;2022-10-31T14:06:36;18.80;97.30
1075;DHT22;526;51.392;12.448;2022-10-31T14:09:02;18.70;97.30
1075;DHT22;526;51.392;12.448;2022-10-31T14:11:28;18.70;97.30
1075;DHT22;526;51.392;12.448;2022-10-31T14:13:56;18.60;97.30
1075;DHT22;526;51.392;12.448;2022-10-31T14:16:25;18.60;97.30
1075;DHT22;526;51.392;12.448;2022-10-31T14:18:59;18.50;97.30
1075;DHT22;526;51.392;12.448;2022-10-31T14:21:28;18.50;97.30
1075;DHT22;526;51.392;12.448;2022-10-31T14:23:55;18.40;97.30
1075;DHT22;526;51.392;12.448;2022-10-31T14:29:02;18.30;97.30
1075;DHT22;526;51.392;12.448;2022-10-31T14:40:17;18.20;97.30
1075;DHT22;526;51.392;12.448;2022-10-31T14:43:17;18.10;97.30
1075;DHT22;526;51.392;12.448;2022-10-31T14:45:59;18.10;97.30
1075;DHT22;526;51.392;12.448;2022-10-31T14:51:38;18.10;97.30
1075;DHT22;526;51.392;12.448;2022-10-31T14:54:06;18.00;97.30
1075;DHT22;526;51.392;12.448;2022-10-31T14:56:35;18.00;97.30
1075;DHT22;526;51.392;12.448;2022-10-31T14:59:07;17.90;97.30
1075;DHT22;526;51.392;12.448;2022-10-31T15:01:35;17.90;97.30
1075;DHT22;526;51.392;12.448;2022-10-31T15:04:25;17.80;97.30
1075;DHT22;526;51.392;12.448;2022-10-31T15:07:07;17.80;97.30
1075;DHT22;526;51.392;12.448;2022-10-31T15:09:36;17.70;97.30
1075;DHT22;526;51.392;12.448;2022-10-31T15:14:50;17.50;97.30
1075;DHT22;526;51.392;12.448;2022-10-31T15:17:16;17.40;97.30
1075;DHT22;526;51.392;12.448;2022-10-31T15:19:42;17.40;97.30
1075;DHT22;526;51.392;12.448;2022-10-31T15:22:14;17.20;97.30
1075;DHT22;526;51.392;12.448;2022-10-31T15:24:39;17.20;97.30
1075;DHT22;526;51.392;12.448;2022-10-31T15:27:12;17.10;97.30
1075;DHT22;526;51.392;12.448;2022-10-31T15:29:48;17.00;97.30
1075;DHT22;526;51.392;12.448;2022-10-31T15:32:28;16.90;97.30
1075;DHT22;526;51.392;12.448;2022-10-31T15:34:55;16.90;97.30
1075;DHT22;526;51.392;12.448;2022-10-31T15:37:22;16.80;97.30
1075;DHT22;526;51.392;12.448;2022-10-31T15:39:50;16.80;97.30
1075;DHT22;526;51.392;12.448;2022-10-31T15:45:01;16.60;97.30
1075;DHT22;526;51.392;12.448;2022-10-31T15:47:29;16.60;97.30
1075;DHT22;526;51.392;12.448;2022-10-31T15:49:57;16.50;97.30
1075;DHT22;526;51.392;12.448;2022-10-31T15:52:31;16.50;97.30
1075;DHT22;526;51.392;12.448;2022-10-31T15:57:39;16.40;97.30
1075;DHT22;526;51.392;12.448;2022-10-31T16:00:20;16.30;97.30
1075;DHT22;526;51.392;12.448;2022-10-31T16:02:46;16.30;97.30
1075;DHT22;526;51.392;12.448;2022-10-31T16:05:16;16.20;97.30
1075;DHT22;526;51.392;12.448;2022-10-31T16:07:49;16.20;97.30
1075;DHT22;526;51.392;12.448;2022-10-31T16:10:23;16.10;97.30
1075;DHT22;526;51.392;12.448;2022-10-31T16:12:50;16.00;97.30
1075;DHT22;526;51.392;12.448;2022-10-31T16:15:18;16.00;97.30
1075;DHT22;526;51.392;12.448;2022-10-31T16:17:46;15.90;97.30
1075;DHT22;526;51.392;12.448;2022-10-31T16:20:25;15.90;97.30
1075;DHT22;526;51.392;12.448;2022-10-31T16:22:53;15.80;97.30
1075;DHT22;526;51.392;12.448;2022-10-31T16:25:35;15.80;97.30
1075;DHT22;526;51.392;12.448;2022-10-31T16:28:05;15.70;97.30
1075;DHT22;526;51.392;12.448;2022-10-31T16:30:40;15.60;97.30
1075;DHT22;526;51.392;12.448;2022-10-31T16:35:54;15.60;97.30
1075;DHT22;526;51.392;12.448;2022-10-31T16:38:20;15.50;97.30
1075;DHT22;526;51.392;12.448;2022-10-31T16:40:47;15.50;97.30
1075;DHT22;526;51.392;12.448;2022-10-31T16:43:14;15.50;97.30
1075;DHT22;526;51.392;12.448;2022-10-31T16:45:58;15.40;97.30
1075;DHT22;526;51.392;12.448;2022-10-31T16:48:23;15.30;97.30
1075;DHT22;526;51.392;12.448;2022-10-31T16:50:50;15.30;97.30
1075;DHT22;526;51.392;12.448;2022-10-31T16:53:17;15.30;97.30
1075;DHT22;526;51.392;12.448;2022-10-31T16:55:55;15.20;97.30
1075;DHT22;526;51.392;12.448;2022-10-31T16:58:27;15.20;97.30
1075;DHT22;526;51.392;12.448;2022-10-31T17:00:53;15.10;97.30
1075;DHT22;526;51.392;12.448;2022-10-31T17:03:19;15.10;97.30
1075;DHT22;526;51.392;12.448;2022-10-31T17:05:45;15.10;97.30
1075;DHT22;526;51.392;12.448;2022-10-31T17:08:11;15.10;97.30
1075;DHT22;526;51.392;12.448;2022-10-31T17:10:37;15.10;97.30
1075;DHT22;526;51.392;12.448;2022-10-31T17:13:03;15.10;97.30
1075;DHT22;526;51.392;12.448;2022-10-31T17:15:52;15.10;97.30
1075;DHT22;526;51.392;12.448;2022-10-31T17:18:19;15.10;97.30
1075;DHT22;526;51.392;12.448;2022-10-31T17:20:45;15.10;97.30
1075;DHT22;526;51.392;12.448;2022-10-31T17:23:12;15.10;97.30
1075;DHT22;526;51.392;12.448;2022-10-31T17:25:39;15.00;97.30
1075;DHT22;526;51.392;12.448;2022-10-31T17:28:05;15.00;97.30
1075;DHT22;526;51.392;12.448;2022-10-31T17:30:32;15.00;97.30
1075;DHT22;526;51.392;12.448;2022-10-31T17:32:58;15.00;97.30
1075;DHT22;526;51.392;12.448;2022-10-31T17:35:23;15.00;97.30
1075;DHT22;526;51.392;12.448;2022-10-31T17:37:49;14.90;97.30
1075;DHT22;526;51.392;12.448;2022-10-31T17:40:18;14.90;97.30
1075;DHT22;526;51.392;12.448;2022-10-31T17:42:51;14.80;97.30
1075;DHT22;526;51.392;12.448;2022-10-31T17:45:17;14.80;97.30
1075;DHT22;526;51.392;12.448;2022-10-31T17:47:46;14.80;97.30
1075;DHT22;526;51.392;12.448;2022-10-31T17:50:11;14.80;97.30
1075;DHT22;526;51.392;12.448;2022-10-31T17:52:37;14.70;97.30
1075;DHT22;526;51.392;12.448;2022-10-31T17:55:03;14.70;97.30
1075;DHT22;526;51.392;12.448;2022-10-31T17:57:32;14.70;97.30
1075;DHT22;526;51.392;12.448;2022-10-31T17:59:59;14.70;97.30
1075;DHT22;526;51.392;12.448;2022-10-31T18:02:24;14.70;97.30
1075;DHT22;526;51.392;12.448;2022-10-31T18:04:50;14.70;97.30
1075;DHT22;526;51.392;12.448;2022-10-31T18:07:15;14.60;97.30
1075;DHT22;526;51.392;12.448;2022-10-31T18:09:45;14.60;97.30
1075;DHT22;526;51.392;12.448;2022-10-31T18:12:11;14.60;97.30
1075;DHT22;526;51.392;12.448;2022-10-31T18:14:36;14.60;97.30
1075;DHT22;526;51.392;12.448;2022-10-31T18:17:02;14.70;97.30
1075;DHT22;526;51.392;12.448;2022-10-31T18:19:28;14.70;97.30
1075;DHT22;526;51.392;12.448;2022-10-31T18:21:53;14.80;97.30
1075;DHT22;526;51.392;12.448;2022-10-31T18:24:19;14.90;97.30
1075;DHT22;526;51.392;12.448;2022-10-31T18:26:44;14.90;97.30
1075;DHT22;526;51.392;12.448;2022-10-31T18:29:10;15.00;97.30
1075;DHT22;526;51.392;12.448;2022-10-31T18:31:36;15.10;97.30
1075;DHT22;526;51.392;12.448;2022-10-31T18:34:01;15.20;97.30
1075;DHT22;526;51.392;12.448;2022-10-31T18:36:27;15.20;97.30
1075;DHT22;526;51.392;12.448;2022-10-31T18:38:52;15.30;97.30
1075;DHT22;526;51.392;12.448;2022-10-31T18:41:19;15.30;97.30
1075;DHT22;526;51.392;12.448;2022-10-31T18:43:44;15.40;97.30
1075;DHT22;526;51.392;12.448;2022-10-31T18:46:14;15.40;97.30
1075;DHT22;526;51.392;12.448;2022-10-31T18:48:41;15.40;97.30
1075;DHT22;526;51.392;12.448;2022-10-31T18:51:10;15.40;97.30
1075;DHT22;526;51.392;12.448;2022-10-31T18:53:36;15.40;97.30
1075;DHT22;526;51.392;12.448;2022-10-31T18:56:05;15.30;97.30
1075;DHT22;526;51.392;12.448;2022-10-31T18:58:31;15.20;97.30